createdAt,value
2017-03-12T00:00:57.784Z,98.87
2017-03-12T00:01:58.435Z,98.49
2017-03-12T00:02:59.099Z,98.96
2017-03-12T00:03:59.724Z,98.87
2017-03-12T00:05:00.370Z,98.49
2017-03-12T00:06:01.023Z,98.68
2017-03-12T00:07:01.711Z,98.39
2017-03-12T00:08:02.365Z,98.49
2017-03-12T00:09:03.017Z,98.49
2017-03-12T00:10:03.659Z,98.39
2017-03-12T00:11:04.314Z,97.92
2017-03-12T00:12:04.944Z,98.58
2017-03-12T00:13:05.607Z,97.73
2017-03-12T00:14:06.264Z,98.49
2017-03-12T00:15:06.933Z,98.39
2017-03-12T00:16:07.581Z,98.49
2017-03-12T00:17:08.230Z,98.39
2017-03-12T00:18:08.884Z,97.92
2017-03-12T00:19:09.536Z,97.92
2017-03-12T00:20:10.197Z,97.73
2017-03-12T00:21:10.849Z,98.11
2017-03-12T00:22:11.499Z,97.64
2017-03-12T00:23:12.168Z,97.64
2017-03-12T00:24:12.843Z,98.3
2017-03-12T00:25:13.495Z,97.54
2017-03-12T00:26:14.136Z,97.45
2017-03-12T00:27:14.809Z,97.54
2017-03-12T00:28:15.451Z,97.35
2017-03-12T00:29:16.112Z,97.73
2017-03-12T00:30:16.761Z,97.45
2017-03-12T00:31:17.400Z,97.54
2017-03-12T00:32:18.065Z,96.97
2017-03-12T00:33:18.714Z,97.35
2017-03-12T00:34:19.367Z,97.45
2017-03-12T00:35:20.037Z,97.73
2017-03-12T00:36:20.678Z,97.26
2017-03-12T00:37:21.332Z,97.73
2017-03-12T00:38:21.993Z,97.54
2017-03-12T00:39:22.634Z,97.45
2017-03-12T00:40:23.287Z,97.16
2017-03-12T00:41:23.935Z,97.73
2017-03-12T00:42:24.589Z,97.64
2017-03-12T00:43:25.218Z,97.35
2017-03-12T00:44:25.881Z,97.16
2017-03-12T00:45:26.550Z,97.26
2017-03-12T00:46:27.218Z,97.26
2017-03-12T00:47:27.862Z,96.97
2017-03-12T00:48:28.515Z,97.26
2017-03-12T00:49:29.163Z,96.88
2017-03-12T00:50:29.817Z,96.97
2017-03-12T00:51:30.489Z,97.35
2017-03-12T00:52:31.154Z,97.16
2017-03-12T00:53:31.823Z,97.07
2017-03-12T00:54:32.490Z,96.78
2017-03-12T00:55:33.137Z,97.07
2017-03-12T00:56:33.795Z,97.16
2017-03-12T00:57:34.457Z,96.88
2017-03-12T00:58:35.096Z,96.97
2017-03-12T00:59:35.763Z,96.88
2017-03-12T01:00:36.434Z,97.07
2017-03-12T01:01:37.088Z,96.59
2017-03-12T01:02:37.728Z,96.78
2017-03-12T01:03:38.383Z,97.16
2017-03-12T01:04:39.044Z,96.78
2017-03-12T01:05:39.698Z,96.69
2017-03-12T01:06:40.358Z,97.26
2017-03-12T01:07:41.029Z,96.78
2017-03-12T01:08:41.680Z,96.97
2017-03-12T01:09:42.334Z,97.07
2017-03-12T01:10:43.017Z,96.78
2017-03-12T01:11:43.661Z,96.31
2017-03-12T01:12:44.303Z,96.59
2017-03-12T01:13:44.985Z,96.69
2017-03-12T01:14:45.651Z,96.59
2017-03-12T01:15:46.294Z,96.41
2017-03-12T01:16:46.976Z,96.41
2017-03-12T01:17:47.645Z,96.5
2017-03-12T01:18:48.332Z,96.22
2017-03-12T01:19:48.995Z,95.84
2017-03-12T01:20:49.669Z,95.93
2017-03-12T01:21:50.347Z,95.84
2017-03-12T01:22:51.008Z,96.12
2017-03-12T01:23:51.683Z,95.84
2017-03-12T01:24:52.343Z,95.93
2017-03-12T01:25:53.042Z,96.12
2017-03-12T01:26:53.712Z,95.74
2017-03-12T01:27:54.383Z,95.74
2017-03-12T01:28:55.036Z,95.84
2017-03-12T01:29:55.707Z,95.65
2017-03-12T01:30:56.356Z,95.93
2017-03-12T01:31:57.029Z,96.03
2017-03-12T01:32:57.681Z,95.65
2017-03-12T01:33:58.350Z,96.22
2017-03-12T01:34:58.989Z,95.93
2017-03-12T01:35:59.651Z,95.74
2017-03-12T01:37:00.317Z,95.93
2017-03-12T01:38:00.968Z,95.45
2017-03-12T01:39:01.616Z,95.93
2017-03-12T01:40:02.282Z,95.45
2017-03-12T01:41:02.915Z,95.45
2017-03-12T01:42:03.576Z,95.93
2017-03-12T01:43:04.241Z,95.65
2017-03-12T01:44:04.896Z,95.65
2017-03-12T01:45:05.611Z,96.12
2017-03-12T01:46:06.271Z,96.12
2017-03-12T01:47:06.950Z,95.93
2017-03-12T01:48:07.633Z,96.5
2017-03-12T01:49:08.285Z,96.22
2017-03-12T01:50:08.967Z,96.22
2017-03-12T01:51:09.646Z,96.41
2017-03-12T01:52:10.333Z,96.22
2017-03-12T01:53:11.084Z,96.5
2017-03-12T01:54:11.748Z,96.59
2017-03-12T01:55:12.414Z,96.41
2017-03-12T01:56:13.181Z,96.5
2017-03-12T01:57:13.825Z,96.59
2017-03-12T01:58:14.487Z,96.59
2017-03-12T01:59:15.140Z,96.31
2017-03-12T02:00:15.802Z,96.69
2017-03-12T02:01:16.475Z,96.31
2017-03-12T02:02:17.151Z,96.5
2017-03-12T02:03:18.701Z,96.55
2017-03-12T02:04:19.655Z,97.26
2017-03-12T02:05:20.317Z,97.11
2017-03-12T02:06:20.986Z,96.59
2017-03-12T02:07:21.632Z,96.78
2017-03-12T02:08:22.297Z,97.16
2017-03-12T02:09:22.995Z,96.97
2017-03-12T02:10:23.678Z,97.07
2017-03-12T02:11:24.334Z,96.88
2017-03-12T02:12:24.983Z,97.11
2017-03-12T02:13:25.648Z,96.88
2017-03-12T02:14:26.288Z,96.88
2017-03-12T02:15:26.935Z,97.26
2017-03-12T02:16:27.578Z,96.92
2017-03-12T02:17:28.228Z,96.92
2017-03-12T02:18:28.878Z,96.83
2017-03-12T02:19:29.544Z,97.16
2017-03-12T02:20:30.203Z,96.97
2017-03-12T02:21:30.894Z,97.26
2017-03-12T02:22:31.556Z,96.88
2017-03-12T02:23:32.249Z,96.92
2017-03-12T02:24:32.901Z,97.26
2017-03-12T02:25:33.577Z,97.11
2017-03-12T02:26:34.240Z,97.3
2017-03-12T02:27:34.909Z,97.11
2017-03-12T02:28:35.575Z,97.87
2017-03-12T02:29:36.216Z,97.64
2017-03-12T02:30:36.884Z,97.49
2017-03-12T02:31:37.553Z,97.11
2017-03-12T02:32:38.239Z,97.11
2017-03-12T02:33:38.905Z,96.92
2017-03-12T02:34:39.597Z,97.68
2017-03-12T02:35:40.251Z,97.49
2017-03-12T02:36:40.903Z,97.59
2017-03-12T02:37:41.598Z,97.87
2017-03-12T02:38:42.300Z,97.87
2017-03-12T02:39:42.967Z,97.87
2017-03-12T02:40:43.615Z,98.06
2017-03-12T02:41:44.277Z,98.06
2017-03-12T02:42:44.934Z,98.16
2017-03-12T02:43:45.583Z,98.06
2017-03-12T02:44:46.245Z,98.35
2017-03-12T02:45:46.900Z,98.54
2017-03-12T02:46:47.568Z,98.44
2017-03-12T02:47:48.224Z,98.16
2017-03-12T02:48:48.877Z,98.16
2017-03-12T02:49:49.541Z,98.44
2017-03-12T02:50:50.189Z,98.25
2017-03-12T02:51:50.847Z,98.35
2017-03-12T02:52:51.497Z,98.25
2017-03-12T02:53:52.142Z,98.35
2017-03-12T02:54:52.802Z,98.06
2017-03-12T02:55:53.461Z,98.25
2017-03-12T02:56:54.117Z,98.35
2017-03-12T02:57:54.780Z,98.25
2017-03-12T02:58:55.438Z,97.97
2017-03-12T02:59:56.121Z,98.35
2017-03-12T03:00:56.788Z,98.16
2017-03-12T03:01:57.430Z,98.35
2017-03-12T03:02:58.081Z,98.44
2017-03-12T03:03:58.759Z,98.44
2017-03-12T03:04:59.429Z,98.63
2017-03-12T03:06:00.097Z,98.44
2017-03-12T03:07:00.766Z,98.35
2017-03-12T03:08:01.417Z,98.54
2017-03-12T03:09:02.077Z,98.35
2017-03-12T03:10:02.727Z,99.1
2017-03-12T03:11:03.381Z,98.44
2017-03-12T03:12:04.029Z,98.91
2017-03-12T03:13:04.693Z,99.1
2017-03-12T03:14:05.324Z,98.82
2017-03-12T03:15:06.007Z,98.72
2017-03-12T03:16:06.669Z,98.91
2017-03-12T03:17:07.339Z,98.91
2017-03-12T03:18:08.014Z,99.48
2017-03-12T03:19:08.672Z,98.82
2017-03-12T03:20:09.352Z,98.82
2017-03-12T03:21:10.002Z,98.82
2017-03-12T03:22:10.654Z,98.82
2017-03-12T03:23:11.327Z,98.72
2017-03-12T03:24:11.992Z,98.91
2017-03-12T03:25:12.638Z,98.82
2017-03-12T03:26:13.290Z,99.01
2017-03-12T03:27:13.937Z,98.63
2017-03-12T03:28:14.577Z,98.72
2017-03-12T03:29:15.237Z,99.58
2017-03-12T03:30:15.912Z,98.72
2017-03-12T03:31:16.557Z,98.91
2017-03-12T03:32:17.210Z,99.39
2017-03-12T03:33:17.855Z,99.39
2017-03-12T03:34:18.509Z,99.2
2017-03-12T03:35:19.148Z,99.39
2017-03-12T03:36:19.794Z,99.2
2017-03-12T03:37:20.446Z,99.39
2017-03-12T03:38:21.111Z,99.58
2017-03-12T03:39:21.746Z,99.2
2017-03-12T03:40:22.404Z,99.1
2017-03-12T03:41:23.045Z,99.58
2017-03-12T03:42:23.693Z,99.58
2017-03-12T03:43:24.343Z,99.67
2017-03-12T03:44:25.010Z,99.39
2017-03-12T03:45:25.663Z,99.2
2017-03-12T03:46:26.314Z,99.1
2017-03-12T03:47:26.946Z,99.58
2017-03-12T03:48:27.611Z,99.29
2017-03-12T03:49:28.328Z,99.29
2017-03-12T03:50:28.993Z,99.48
2017-03-12T03:51:29.632Z,99.39
2017-03-12T03:52:30.387Z,99.29
2017-03-12T03:53:31.048Z,99.29
2017-03-12T03:54:31.720Z,99.39
2017-03-12T03:55:32.369Z,99.05
2017-03-12T03:56:33.013Z,99.77
2017-03-12T03:57:33.672Z,99.99
2017-03-12T03:58:34.315Z,99.99
2017-03-12T03:59:34.978Z,99.01
2017-03-12T04:00:35.630Z,99.86
2017-03-12T04:01:36.325Z,99.39
2017-03-12T04:02:37.002Z,99.48
2017-03-12T04:03:37.642Z,99.29
2017-03-12T04:04:38.299Z,99.86
2017-03-12T04:05:38.967Z,99.86
2017-03-12T04:06:39.613Z,99.71
2017-03-12T04:07:40.260Z,99.71
2017-03-12T04:08:40.918Z,99.71
2017-03-12T04:09:41.576Z,99.33
2017-03-12T04:10:42.221Z,99.62
2017-03-12T04:11:42.887Z,99.52
2017-03-12T04:12:43.499Z,99.99
2017-03-12T04:13:44.149Z,99.99
2017-03-12T04:14:44.813Z,99.99
2017-03-12T04:15:45.459Z,99.99
2017-03-12T04:16:46.095Z,99.99
2017-03-12T04:17:46.756Z,99.9
2017-03-12T04:18:47.414Z,99.99
2017-03-12T04:19:48.061Z,99.99
2017-03-12T04:20:48.710Z,99.99
2017-03-12T04:21:49.360Z,99.99
2017-03-12T04:22:50.032Z,99.99
2017-03-12T04:23:50.687Z,99.99
2017-03-12T04:24:51.344Z,99.99
2017-03-12T04:25:52.005Z,99.99
2017-03-12T04:26:52.696Z,99.99
2017-03-12T04:27:53.326Z,99.99
2017-03-12T04:28:53.972Z,99.99
2017-03-12T04:29:54.614Z,99.99
2017-03-12T04:30:55.253Z,99.99
2017-03-12T04:31:55.904Z,99.99
2017-03-12T04:32:56.549Z,99.99
2017-03-12T04:33:57.193Z,99.99
2017-03-12T04:34:57.854Z,99.99
2017-03-12T04:35:58.510Z,99.99
2017-03-12T04:36:59.171Z,99.99
2017-03-12T04:37:59.814Z,99.99
2017-03-12T04:39:00.475Z,99.99
2017-03-12T04:40:01.118Z,99.99
2017-03-12T04:41:01.762Z,99.99
2017-03-12T04:42:02.430Z,99.99
2017-03-12T04:43:03.070Z,99.99
2017-03-12T04:44:03.728Z,99.99
2017-03-12T04:45:04.391Z,99.99
2017-03-12T04:46:05.044Z,99.99
2017-03-12T04:47:05.699Z,99.99
2017-03-12T04:48:06.359Z,99.99
2017-03-12T04:49:07.005Z,99.99
2017-03-12T04:50:07.653Z,99.99
2017-03-12T04:51:08.316Z,99.99
2017-03-12T04:52:08.956Z,99.99
2017-03-12T04:53:09.623Z,99.99
2017-03-12T04:54:10.283Z,99.99
2017-03-12T04:55:10.937Z,99.99
2017-03-12T04:56:11.596Z,99.99
2017-03-12T04:57:12.248Z,99.99
2017-03-12T04:58:12.892Z,99.99
2017-03-12T04:59:13.549Z,99.99
2017-03-12T05:00:14.201Z,99.99
2017-03-12T05:01:14.864Z,99.99
2017-03-12T05:02:15.521Z,99.99
2017-03-12T05:03:16.172Z,99.99
2017-03-12T05:04:16.822Z,99.99
2017-03-12T05:05:17.485Z,99.99
2017-03-12T05:06:18.132Z,99.99
2017-03-12T05:07:18.778Z,99.99
2017-03-12T05:08:19.426Z,99.99
2017-03-12T05:09:20.080Z,99.99
2017-03-12T05:10:20.739Z,99.99
2017-03-12T05:11:21.403Z,99.99
2017-03-12T05:12:22.043Z,99.99
2017-03-12T05:13:22.692Z,99.99
2017-03-12T05:14:23.341Z,99.99
2017-03-12T05:15:24.001Z,99.99
2017-03-12T05:16:24.647Z,99.71
2017-03-12T05:17:25.310Z,99.9
2017-03-12T05:18:25.969Z,99.99
2017-03-12T05:19:26.629Z,99.9
2017-03-12T05:20:27.274Z,99.81
2017-03-12T05:21:27.941Z,99.71
2017-03-12T05:22:28.591Z,99.9
2017-03-12T05:23:29.267Z,99.9
2017-03-12T05:24:29.908Z,99.99
2017-03-12T05:25:30.554Z,99.99
2017-03-12T05:26:31.219Z,99.99
2017-03-12T05:27:31.864Z,99.99
2017-03-12T05:28:32.523Z,99.99
2017-03-12T05:29:33.193Z,99.99
2017-03-12T05:30:33.834Z,99.52
2017-03-12T05:31:34.487Z,99.24
2017-03-12T05:32:35.137Z,99.81
2017-03-12T05:33:35.782Z,99.81
2017-03-12T05:34:36.427Z,99.52
2017-03-12T05:35:37.078Z,99.33
2017-03-12T05:36:37.720Z,99.24
2017-03-12T05:37:38.377Z,99.9
2017-03-12T05:38:39.048Z,99.62
2017-03-12T05:39:39.712Z,99.43
2017-03-12T05:40:40.372Z,99.52
2017-03-12T05:41:41.025Z,99.24
2017-03-12T05:42:41.680Z,99.43
2017-03-12T05:43:42.311Z,99.24
2017-03-12T05:44:42.975Z,99.52
2017-03-12T05:45:43.627Z,99.43
2017-03-12T05:46:44.278Z,99.52
2017-03-12T05:47:44.932Z,99.33
2017-03-12T05:48:45.592Z,99.05
2017-03-12T05:49:46.236Z,98.86
2017-03-12T05:50:46.905Z,98.77
2017-03-12T05:51:47.555Z,99.62
2017-03-12T05:52:48.205Z,98.86
2017-03-12T05:53:48.867Z,98.68
2017-03-12T05:54:49.539Z,98.58
2017-03-12T05:55:50.193Z,99.52
2017-03-12T05:56:50.841Z,98.86
2017-03-12T05:57:51.502Z,99.52
2017-03-12T05:58:52.156Z,99.43
2017-03-12T05:59:52.812Z,98.68
2017-03-12T06:00:53.477Z,98.96
2017-03-12T06:01:54.159Z,99.15
2017-03-12T06:02:54.825Z,98.77
2017-03-12T06:03:55.505Z,98.77
2017-03-12T06:04:56.169Z,98.86
2017-03-12T06:05:56.824Z,98.86
2017-03-12T06:06:57.469Z,98.3
2017-03-12T06:07:58.128Z,98.58
2017-03-12T06:08:58.853Z,98.49
2017-03-12T06:09:59.514Z,98.3
2017-03-12T06:11:00.164Z,98.2
2017-03-12T06:12:00.822Z,98.2
2017-03-12T06:13:01.478Z,98.2
2017-03-12T06:14:02.126Z,98.3
2017-03-12T06:15:02.775Z,98.68
2017-03-12T06:16:03.435Z,98.86
2017-03-12T06:17:04.108Z,98.2
2017-03-12T06:18:04.786Z,97.63
2017-03-12T06:19:05.457Z,97.54
2017-03-12T06:20:06.104Z,97.44
2017-03-12T06:21:06.744Z,97.54
2017-03-12T06:22:07.432Z,97.44
2017-03-12T06:23:08.082Z,97.54
2017-03-12T06:24:08.725Z,97.54
2017-03-12T06:25:09.392Z,97.73
2017-03-12T06:26:10.038Z,97.44
2017-03-12T06:27:10.696Z,97.82
2017-03-12T06:28:11.354Z,97.73
2017-03-12T06:29:12.015Z,97.54
2017-03-12T06:30:12.680Z,97.73
2017-03-12T06:31:13.317Z,97.54
2017-03-12T06:32:14.167Z,97.82
2017-03-12T06:33:14.835Z,97.82
2017-03-12T06:34:15.489Z,97.54
2017-03-12T06:35:16.150Z,97.73
2017-03-12T06:36:16.795Z,97.92
2017-03-12T06:37:17.440Z,97.73
2017-03-12T06:38:18.112Z,97.92
2017-03-12T06:39:18.779Z,97.73
2017-03-12T06:40:19.472Z,97.63
2017-03-12T06:41:20.140Z,97.54
2017-03-12T06:42:20.792Z,98.11
2017-03-12T06:43:21.449Z,97.63
2017-03-12T06:44:22.096Z,96.88
2017-03-12T06:45:22.759Z,96.78
2017-03-12T06:46:23.431Z,96.78
2017-03-12T06:47:24.095Z,96.78
2017-03-12T06:48:24.748Z,96.78
2017-03-12T06:49:25.408Z,96.78
2017-03-12T06:50:26.071Z,96.88
2017-03-12T06:51:26.728Z,96.4
2017-03-12T06:52:27.391Z,96.88
2017-03-12T06:53:28.015Z,96.97
2017-03-12T06:54:28.664Z,97.25
2017-03-12T06:55:29.319Z,96.69
2017-03-12T06:56:29.980Z,96.59
2017-03-12T06:57:30.621Z,96.88
2017-03-12T06:58:31.284Z,97.06
2017-03-12T06:59:31.936Z,96.97
2017-03-12T07:00:32.677Z,96.97
2017-03-12T07:01:33.325Z,96.59
2017-03-12T07:02:33.998Z,96.4
2017-03-12T07:03:34.675Z,96.12
2017-03-12T07:04:35.343Z,96.5
2017-03-12T07:05:36.051Z,96.69
2017-03-12T07:06:36.783Z,96.31
2017-03-12T07:07:37.452Z,96.4
2017-03-12T07:08:38.122Z,96.59
2017-03-12T07:09:38.779Z,96.5
2017-03-12T07:10:39.476Z,96.5
2017-03-12T07:11:40.132Z,96.78
2017-03-12T07:12:40.813Z,95.93
2017-03-12T07:13:41.479Z,96.12
2017-03-12T07:14:42.147Z,96.02
2017-03-12T07:15:42.801Z,96.4
2017-03-12T07:16:43.452Z,95.93
2017-03-12T07:17:44.279Z,95.83
2017-03-12T07:18:44.941Z,96.12
2017-03-12T07:19:45.649Z,95.55
2017-03-12T07:20:46.291Z,95.83
2017-03-12T07:21:46.959Z,96.02
2017-03-12T07:22:47.614Z,95.88
2017-03-12T07:23:48.253Z,95.55
2017-03-12T07:24:48.912Z,95.69
2017-03-12T07:25:49.561Z,95.69
2017-03-12T07:26:50.307Z,95.5
2017-03-12T07:27:50.980Z,95.6
2017-03-12T07:28:51.630Z,95.31
2017-03-12T07:29:52.297Z,95.12
2017-03-12T07:30:52.956Z,94.93
2017-03-12T07:31:53.628Z,95.41
2017-03-12T07:32:54.294Z,95.12
2017-03-12T07:33:55.090Z,94.84
2017-03-12T07:34:55.770Z,94.84
2017-03-12T07:35:56.427Z,94.74
2017-03-12T07:36:57.087Z,94.84
2017-03-12T07:37:57.804Z,94.74
2017-03-12T07:38:58.508Z,94.74
2017-03-12T07:39:59.217Z,94.37
2017-03-12T07:40:59.873Z,93.99
2017-03-12T07:42:00.523Z,94.65
2017-03-12T07:43:01.185Z,94.74
2017-03-12T07:44:01.824Z,94.74
2017-03-12T07:45:02.499Z,94.27
2017-03-12T07:46:03.191Z,93.7
2017-03-12T07:47:03.868Z,93.7
2017-03-12T07:48:04.544Z,93.61
2017-03-12T07:49:05.209Z,93.7
2017-03-12T07:50:05.872Z,94.08
2017-03-12T07:51:06.544Z,93.94
2017-03-12T07:52:07.200Z,93.65
2017-03-12T07:53:07.860Z,93.27
2017-03-12T07:54:08.531Z,93.18
2017-03-12T07:55:09.258Z,93.37
2017-03-12T07:56:09.952Z,93.37
2017-03-12T07:57:10.659Z,93.46
2017-03-12T07:58:11.310Z,93.08
2017-03-12T07:59:11.964Z,93.18
2017-03-12T08:00:12.625Z,92.8
2017-03-12T08:01:13.301Z,92.71
2017-03-12T08:02:13.973Z,92.33
2017-03-12T08:03:14.646Z,92.23
2017-03-12T08:04:15.303Z,92.8
2017-03-12T08:05:15.973Z,92.71
2017-03-12T08:06:16.646Z,92.61
2017-03-12T08:07:17.366Z,93.37
2017-03-12T08:08:17.996Z,92.61
2017-03-12T08:09:18.667Z,92.8
2017-03-12T08:10:19.318Z,92.61
2017-03-12T08:11:20.621Z,92.8
2017-03-12T08:12:21.293Z,92.52
2017-03-12T08:13:21.961Z,92.8
2017-03-12T08:14:22.607Z,92.9
2017-03-12T08:15:23.266Z,92.61
2017-03-12T08:16:23.900Z,92.04
2017-03-12T08:17:24.583Z,91.95
2017-03-12T08:18:25.246Z,91.76
2017-03-12T08:19:25.953Z,92.04
2017-03-12T08:20:26.628Z,91.66
2017-03-12T08:21:27.298Z,91.57
2017-03-12T08:22:28.000Z,91.61
2017-03-12T08:23:28.675Z,91.71
2017-03-12T08:24:29.327Z,90.38
2017-03-12T08:25:30.004Z,90.38
2017-03-12T08:26:30.660Z,90.48
2017-03-12T08:27:31.327Z,90.62
2017-03-12T08:28:32.026Z,90.62
2017-03-12T08:29:32.664Z,90.53
2017-03-12T08:30:33.328Z,91
2017-03-12T08:31:33.983Z,91.24
2017-03-12T08:32:34.665Z,91.42
2017-03-12T08:33:35.319Z,89.91
2017-03-12T08:34:35.983Z,89.34
2017-03-12T08:35:36.675Z,88.68
2017-03-12T08:36:37.347Z,88.68
2017-03-12T08:37:38.007Z,89.15
2017-03-12T08:38:38.686Z,88.87
2017-03-12T08:39:39.347Z,89.25
2017-03-12T08:40:39.990Z,88.87
2017-03-12T08:41:40.648Z,88.48
2017-03-12T08:42:41.310Z,89.25
2017-03-12T08:43:41.993Z,88.77
2017-03-12T08:44:42.665Z,89.15
2017-03-12T08:45:43.315Z,88.87
2017-03-12T08:46:43.969Z,89.15
2017-03-12T08:47:44.624Z,88.87
2017-03-12T08:48:45.290Z,88.58
2017-03-12T08:49:45.954Z,88.48
2017-03-12T08:50:46.610Z,88.48
2017-03-12T08:51:47.305Z,88.58
2017-03-12T08:52:47.966Z,88.77
2017-03-12T08:53:48.611Z,89.25
2017-03-12T08:54:49.284Z,89.06
2017-03-12T08:55:49.953Z,88.68
2017-03-12T08:56:50.624Z,88.68
2017-03-12T08:57:51.291Z,88.39
2017-03-12T08:58:51.936Z,88.29
2017-03-12T08:59:52.593Z,88.39
2017-03-12T09:00:53.259Z,87.82
2017-03-12T09:01:53.933Z,88.01
2017-03-12T09:02:54.590Z,88.01
2017-03-12T09:03:55.269Z,87.92
2017-03-12T09:04:55.939Z,88.2
2017-03-12T09:05:56.613Z,88.29
2017-03-12T09:06:57.267Z,88.29
2017-03-12T09:07:57.928Z,88.2
2017-03-12T09:08:58.599Z,88.39
2017-03-12T09:09:59.256Z,88.39
2017-03-12T09:10:59.928Z,88.58
2017-03-12T09:12:00.604Z,88.39
2017-03-12T09:13:01.286Z,88.68
2017-03-12T09:14:01.968Z,87.87
2017-03-12T09:15:02.655Z,87.92
2017-03-12T09:16:03.330Z,88.01
2017-03-12T09:17:03.988Z,87.96
2017-03-12T09:18:04.638Z,88.34
2017-03-12T09:19:05.297Z,87.96
2017-03-12T09:20:05.979Z,87.68
2017-03-12T09:21:06.644Z,87.39
2017-03-12T09:22:07.323Z,87.87
2017-03-12T09:23:07.990Z,87.77
2017-03-12T09:24:08.661Z,87.68
2017-03-12T09:25:09.335Z,87.49
2017-03-12T09:26:10.041Z,86.91
2017-03-12T09:27:10.702Z,86.91
2017-03-12T09:28:11.358Z,86.91
2017-03-12T09:29:12.024Z,86.72
2017-03-12T09:30:12.750Z,86.63
2017-03-12T09:31:13.418Z,86.82
2017-03-12T09:32:14.133Z,86.91
2017-03-12T09:33:14.797Z,86.82
2017-03-12T09:34:15.449Z,86.91
2017-03-12T09:35:16.111Z,87.01
2017-03-12T09:36:16.786Z,87.68
2017-03-12T09:37:17.451Z,87.39
2017-03-12T09:38:18.148Z,86.91
2017-03-12T09:39:18.805Z,86.82
2017-03-12T09:40:19.456Z,86.72
2017-03-12T09:41:20.125Z,86.25
2017-03-12T09:42:20.765Z,86.63
2017-03-12T09:43:21.424Z,85.97
2017-03-12T09:44:22.073Z,86.25
2017-03-12T09:45:22.728Z,86.16
2017-03-12T09:46:23.397Z,86.11
2017-03-12T09:47:24.068Z,85.91
2017-03-12T09:48:24.734Z,86.01
2017-03-12T09:49:25.405Z,85.78
2017-03-12T09:50:26.087Z,85.72
2017-03-12T09:51:26.766Z,85.82
2017-03-12T09:52:27.427Z,85.91
2017-03-12T09:53:28.124Z,85.87
2017-03-12T09:54:28.787Z,86.2
2017-03-12T09:55:29.463Z,86.25
2017-03-12T09:56:30.146Z,86.11
2017-03-12T09:57:30.809Z,85.82
2017-03-12T09:58:31.484Z,85.63
2017-03-12T09:59:32.164Z,85.91
2017-03-12T10:00:32.846Z,85.25
2017-03-12T10:01:33.497Z,85.72
2017-03-12T10:02:34.247Z,85.53
2017-03-12T10:03:34.866Z,85.44
2017-03-12T10:04:35.517Z,85.35
2017-03-12T10:05:36.176Z,85.16
2017-03-12T10:06:36.839Z,85.25
2017-03-12T10:07:37.491Z,85.35
2017-03-12T10:08:38.179Z,85.44
2017-03-12T10:09:38.825Z,85.25
2017-03-12T10:10:39.472Z,85.06
2017-03-12T10:11:40.138Z,85.25
2017-03-12T10:12:40.809Z,85.16
2017-03-12T10:13:41.460Z,85.06
2017-03-12T10:14:42.118Z,85.06
2017-03-12T10:15:42.774Z,84.68
2017-03-12T10:16:43.452Z,84.59
2017-03-12T10:17:44.111Z,84.49
2017-03-12T10:18:44.774Z,84.21
2017-03-12T10:19:45.433Z,83.83
2017-03-12T10:20:46.094Z,83.07
2017-03-12T10:21:46.784Z,84.01
2017-03-12T10:22:47.443Z,83.26
2017-03-12T10:23:48.125Z,83.54
2017-03-12T10:24:48.785Z,83.26
2017-03-12T10:25:49.495Z,83.16
2017-03-12T10:26:50.145Z,82.78
2017-03-12T10:27:50.812Z,83.26
2017-03-12T10:28:51.478Z,82.78
2017-03-12T10:29:52.135Z,82.59
2017-03-12T10:30:52.789Z,82.97
2017-03-12T10:31:53.486Z,82.31
2017-03-12T10:32:54.157Z,82.54
2017-03-12T10:33:54.826Z,82.07
2017-03-12T10:34:55.521Z,82.07
2017-03-12T10:35:56.255Z,81.97
2017-03-12T10:36:56.944Z,81.97
2017-03-12T10:37:57.609Z,81.78
2017-03-12T10:38:58.274Z,80.93
2017-03-12T10:39:58.943Z,80.55
2017-03-12T10:40:59.624Z,80.26
2017-03-12T10:42:00.287Z,80.35
2017-03-12T10:43:00.942Z,80.64
2017-03-12T10:44:01.606Z,80.35
2017-03-12T10:45:02.308Z,80.26
2017-03-12T10:46:03.002Z,78.93
2017-03-12T10:47:03.683Z,78.27
2017-03-12T10:48:04.347Z,77.51
2017-03-12T10:49:05.024Z,77.51
2017-03-12T10:50:05.661Z,77.07
2017-03-12T10:51:06.351Z,77.07
2017-03-12T10:52:07.025Z,77.07
2017-03-12T10:53:07.688Z,75.79
2017-03-12T10:54:08.362Z,75.89
2017-03-12T10:55:09.005Z,76.5
2017-03-12T10:56:09.668Z,76.31
2017-03-12T10:57:10.336Z,75.74
2017-03-12T10:58:10.987Z,75.17
2017-03-12T10:59:11.656Z,74.79
2017-03-12T11:00:12.320Z,74.88
2017-03-12T11:01:13.048Z,75.45
2017-03-12T11:02:13.687Z,74.88
2017-03-12T11:03:14.346Z,74.98
2017-03-12T11:04:15.005Z,75.45
2017-03-12T11:05:15.678Z,75.07
2017-03-12T11:06:16.348Z,74.51
2017-03-12T11:07:17.004Z,74.22
2017-03-12T11:08:17.657Z,73.46
2017-03-12T11:09:18.315Z,73.18
2017-03-12T11:10:19.036Z,73.65
2017-03-12T11:11:19.712Z,73.27
2017-03-12T11:12:20.378Z,73.27
2017-03-12T11:13:21.059Z,72.41
2017-03-12T11:14:21.750Z,72.13
2017-03-12T11:15:22.429Z,72.03
2017-03-12T11:16:23.164Z,72.32
2017-03-12T11:17:23.836Z,72.03
2017-03-12T11:18:24.501Z,72.22
2017-03-12T11:19:25.144Z,71.66
2017-03-12T11:20:25.801Z,71.75
2017-03-12T11:21:26.460Z,72.03
2017-03-12T11:22:27.126Z,71.94
2017-03-12T11:23:27.789Z,72.22
2017-03-12T11:24:28.434Z,72.03
2017-03-12T11:25:29.113Z,71.75
2017-03-12T11:26:29.862Z,71.37
2017-03-12T11:27:30.517Z,71.56
2017-03-12T11:28:31.212Z,70.7
2017-03-12T11:29:31.881Z,70.32
2017-03-12T11:30:32.621Z,70.51
2017-03-12T11:31:33.295Z,70.79
2017-03-12T11:32:33.956Z,70.89
2017-03-12T11:33:34.619Z,70.51
2017-03-12T11:34:35.279Z,69.46
2017-03-12T11:35:35.924Z,69.94
2017-03-12T11:36:36.581Z,70.7
2017-03-12T11:37:37.239Z,70.7
2017-03-12T11:38:37.922Z,71.08
2017-03-12T11:39:38.607Z,70.51
2017-03-12T11:40:39.270Z,70.61
2017-03-12T11:41:39.927Z,70.61
2017-03-12T11:42:40.611Z,69.79
2017-03-12T11:43:41.272Z,69.56
2017-03-12T11:44:41.936Z,70.45
2017-03-12T11:45:42.594Z,68.93
2017-03-12T11:46:43.273Z,68.07
2017-03-12T11:47:43.935Z,68.46
2017-03-12T11:48:44.585Z,67.79
2017-03-12T11:49:45.248Z,68.46
2017-03-12T11:50:45.924Z,68.07
2017-03-12T11:51:46.597Z,67.6
2017-03-12T11:52:47.274Z,68.36
2017-03-12T11:53:47.938Z,68.65
2017-03-12T11:54:48.587Z,68.84
2017-03-12T11:55:49.263Z,68.74
2017-03-12T11:56:49.920Z,68.46
2017-03-12T11:57:50.595Z,68.17
2017-03-12T11:58:51.257Z,68.17
2017-03-12T11:59:51.934Z,68.55
2017-03-12T12:00:52.590Z,68.46
2017-03-12T12:01:53.273Z,68.36
2017-03-12T12:02:53.931Z,67.79
2017-03-12T12:03:54.627Z,67.98
2017-03-12T12:04:55.282Z,68.07
2017-03-12T12:05:55.929Z,67.6
2017-03-12T12:06:56.613Z,67.88
2017-03-12T12:07:57.281Z,68.13
2017-03-12T12:08:57.969Z,68.27
2017-03-12T12:09:58.647Z,68.42
2017-03-12T12:10:59.312Z,68.61
2017-03-12T12:12:00.025Z,68.33
2017-03-12T12:13:00.708Z,68.13
2017-03-12T12:14:01.383Z,67.85
2017-03-12T12:15:02.083Z,67.94
2017-03-12T12:16:02.741Z,67.57
2017-03-12T12:17:03.451Z,67.94
2017-03-12T12:18:04.116Z,67.76
2017-03-12T12:19:04.789Z,67.76
2017-03-12T12:20:05.452Z,68.04
2017-03-12T12:21:06.122Z,67.85
2017-03-12T12:22:06.867Z,68.61
2017-03-12T12:23:07.538Z,68.42
2017-03-12T12:24:08.229Z,67.69
2017-03-12T12:25:08.883Z,67.03
2017-03-12T12:26:09.554Z,66.65
2017-03-12T12:27:10.219Z,67.13
2017-03-12T12:28:10.870Z,66.84
2017-03-12T12:29:11.529Z,67.13
2017-03-12T12:30:12.214Z,66.65
2017-03-12T12:31:12.870Z,66.94
2017-03-12T12:32:14.056Z,67.41
2017-03-12T12:33:14.789Z,66.08
2017-03-12T12:34:15.444Z,66.08
2017-03-12T12:35:16.104Z,66.08
2017-03-12T12:36:16.772Z,66.65
2017-03-12T12:37:17.462Z,65.95
2017-03-12T12:38:18.111Z,66.08
2017-03-12T12:39:18.781Z,65.99
2017-03-12T12:40:19.450Z,66.17
2017-03-12T12:41:20.123Z,65.6
2017-03-12T12:42:20.818Z,66.08
2017-03-12T12:43:21.479Z,66.65
2017-03-12T12:44:22.143Z,66.84
2017-03-12T12:45:22.837Z,66.55
2017-03-12T12:46:23.483Z,66.74
2017-03-12T12:47:24.143Z,66.46
2017-03-12T12:48:24.788Z,66.94
2017-03-12T12:49:25.453Z,66.94
2017-03-12T12:50:26.141Z,67.41
2017-03-12T12:51:26.820Z,67.03
2017-03-12T12:52:27.520Z,66.65
2017-03-12T12:53:28.181Z,66.65
2017-03-12T12:54:28.849Z,66.84
2017-03-12T12:55:29.514Z,66.65
2017-03-12T12:56:30.191Z,66.36
2017-03-12T12:57:30.851Z,65.7
2017-03-12T12:58:31.521Z,65.6
2017-03-12T12:59:32.217Z,66.17
2017-03-12T13:00:32.893Z,65.89
2017-03-12T13:01:33.576Z,64.65
2017-03-12T13:02:34.315Z,64.5
2017-03-12T13:03:34.998Z,64.31